Station Historical Data
Daily Summary for May 23, 2017 Units:  Both    English   Metric
« Previous Day
Next Day »
Daily Weekly Monthly Yearly Custom
  High: Low: Average:
Temperature: 75.1 °F /  23.9 °C 45.5 °F /  7.5 °C 61.8 °F /  16.6 °C
Dew Point: 53.8 °F /  12.1 °C 41.8 °F /  5.4 °C 48.1 °F /  8.9 °C
Humidity: 88% 40% 63%
Wind Speed: 10.0mph /  16.1km/h - 2.4mph /  3.9km/h
Wind Gust: 15.0mph /  24.1km/h - -
Wind- - South
Pressure: 29.98 in /  1015.1 hPa 29.73 in /  1006.7 hPa -
Precipitation: 0.00 in /  0 mm    
Historical Graphs
 
 
Tabular Data for May 23, 2017
Time Temperature Dew Point Pressure Wind Wind Speed Wind Gust Humidity Rainfall Rate (Hourly)
00:00 49.9 °F /  9.9 °C 43.3 °F /  6.3 °C 29.98in /  1015.1hPa Calm     78% 0.00in /  0mm
00:05 49.6 °F /  9.8 °C 43.4 °F /  6.3 °C 29.98in /  1015.1hPa Calm     79% 0.00in /  0mm
00:10 49.6 °F /  9.8 °C 43.4 °F /  6.3 °C 29.98in /  1015.1hPa Calm     79% 0.00in /  0mm
00:15 49.5 °F /  9.7 °C 42.9 °F /  6.1 °C 29.98in /  1015.1hPa Calm     78% 0.00in /  0mm
00:20 49.5 °F /  9.7 °C 42.9 °F /  6.1 °C 29.98in /  1015.1hPa Calm     78% 0.00in /  0mm
00:25 49.6 °F /  9.8 °C 43.0 °F /  6.1 °C 29.98in /  1015.1hPa Calm     78% 0.00in /  0mm
00:30 49.6 °F /  9.8 °C 43.0 °F /  6.1 °C 29.98in /  1015.1hPa Calm     78% 0.00in /  0mm
00:35 49.7 °F /  9.8 °C 43.1 °F /  6.2 °C 29.97in /  1014.8hPa Calm     78% 0.00in /  0mm
00:40 49.4 °F /  9.7 °C 42.8 °F /  6 °C 29.97in /  1014.8hPa Calm     78% 0.00in /  0mm
00:45 49.1 °F /  9.5 °C 42.9 °F /  6.1 °C 29.97in /  1014.8hPa Calm     79% 0.00in /  0mm
00:50 48.9 °F /  9.4 °C 42.7 °F /  5.9 °C 29.97in /  1014.8hPa Calm     79% 0.00in /  0mm
00:55 48.7 °F /  9.3 °C 42.8 °F /  6 °C 29.97in /  1014.8hPa Calm     80% 0.00in /  0mm
01:00 48.4 °F /  9.1 °C 42.5 °F /  5.8 °C 29.97in /  1014.8hPa Calm     80% 0.00in /  0mm
01:05 48.2 °F /  9 °C 42.6 °F /  5.9 °C 29.97in /  1014.8hPa Calm     81% 0.00in /  0mm
01:10 48.1 °F /  8.9 °C 42.5 °F /  5.8 °C 29.96in /  1014.4hPa Calm     81% 0.00in /  0mm
01:15 47.9 °F /  8.8 °C 42.3 °F /  5.7 °C 29.96in /  1014.4hPa Calm     81% 0.00in /  0mm
01:20 47.6 °F /  8.7 °C 42.4 °F /  5.8 °C 29.97in /  1014.8hPa Calm     82% 0.00in /  0mm
01:25 47.5 °F /  8.6 °C 42.3 °F /  5.7 °C 29.96in /  1014.4hPa Calm     82% 0.00in /  0mm
01:30 47.3 °F /  8.5 °C 42.4 °F /  5.8 °C 29.96in /  1014.4hPa Calm     83% 0.00in /  0mm
01:35 47.1 °F /  8.4 °C 42.2 °F /  5.7 °C 29.96in /  1014.4hPa Calm     83% 0.00in /  0mm
01:40 47.0 °F /  8.3 °C 42.4 °F /  5.8 °C 29.96in /  1014.4hPa Calm     84% 0.00in /  0mm
01:45 46.8 °F /  8.2 °C 42.2 °F /  5.7 °C 29.96in /  1014.4hPa Calm     84% 0.00in /  0mm
01:50 46.9 °F /  8.3 °C 42.3 °F /  5.7 °C 29.96in /  1014.4hPa Calm     84% 0.00in /  0mm
01:55 46.9 °F /  8.3 °C 42.3 °F /  5.7 °C 29.96in /  1014.4hPa Calm     84% 0.00in /  0mm
02:00 46.9 °F /  8.3 °C 42.6 °F /  5.9 °C 29.96in /  1014.4hPa Calm     85% 0.00in /  0mm
02:05 46.9 °F /  8.3 °C 42.3 °F /  5.7 °C 29.96in /  1014.4hPa Calm     84% 0.00in /  0mm
02:10 46.7 °F /  8.2 °C 42.1 °F /  5.6 °C 29.96in /  1014.4hPa Calm     84% 0.00in /  0mm
02:15 46.5 °F /  8.1 °C 42.2 °F /  5.7 °C 29.96in /  1014.4hPa Calm     85% 0.00in /  0mm
02:20 46.5 °F /  8.1 °C 42.2 °F /  5.7 °C 29.96in /  1014.4hPa Calm     85% 0.00in /  0mm
02:25 46.5 °F /  8.1 °C 42.2 °F /  5.7 °C 29.96in /  1014.4hPa Calm     85% 0.00in /  0mm
02:30 46.7 °F /  8.2 °C 42.4 °F /  5.8 °C 29.96in /  1014.4hPa Calm     85% 0.00in /  0mm
02:35 46.4 °F /  8 °C 42.1 °F /  5.6 °C 29.95in /  1014.1hPa Calm     85% 0.00in /  0mm
02:40 46.5 °F /  8.1 °C 42.5 °F /  5.8 °C 29.96in /  1014.4hPa Calm     86% 0.00in /  0mm
02:45 46.6 °F /  8.1 °C 42.3 °F /  5.7 °C 29.96in /  1014.4hPa Calm     85% 0.00in /  0mm
02:50 46.5 °F /  8.1 °C 42.2 °F /  5.7 °C 29.95in /  1014.1hPa Calm     85% 0.00in /  0mm
02:55 46.6 °F /  8.1 °C 42.3 °F /  5.7 °C 29.95in /  1014.1hPa Calm     85% 0.00in /  0mm
03:00 46.7 °F /  8.2 °C 42.4 °F /  5.8 °C 29.95in /  1014.1hPa Calm     85% 0.00in /  0mm
03:05 46.6 °F /  8.1 °C 42.3 °F /  5.7 °C 29.95in /  1014.1hPa Calm     85% 0.00in /  0mm
03:10 46.5 °F /  8.1 °C 42.2 °F /  5.7 °C 29.95in /  1014.1hPa Calm     85% 0.00in /  0mm
03:15 46.7 °F /  8.2 °C 42.4 °F /  5.8 °C 29.95in /  1014.1hPa Calm     85% 0.00in /  0mm
03:20 46.7 °F /  8.2 °C 42.4 °F /  5.8 °C 29.95in /  1014.1hPa Calm     85% 0.00in /  0mm
03:25 46.6 °F /  8.1 °C 42.3 °F /  5.7 °C 29.95in /  1014.1hPa Calm     85% 0.00in /  0mm
03:30 46.4 °F /  8 °C 42.1 °F /  5.6 °C 29.95in /  1014.1hPa Calm     85% 0.00in /  0mm
03:35 46.3 °F /  7.9 °C 42.0 °F /  5.6 °C 29.95in /  1014.1hPa Calm     85% 0.00in /  0mm
03:40 46.1 °F /  7.8 °C 41.8 °F /  5.4 °C 29.95in /  1014.1hPa Calm     85% 0.00in /  0mm
03:45 46.3 °F /  7.9 °C 42.3 °F /  5.7 °C 29.94in /  1013.8hPa Calm     86% 0.00in /  0mm
03:50 46.3 °F /  7.9 °C 42.3 °F /  5.7 °C 29.94in /  1013.8hPa Calm     86% 0.00in /  0mm
03:55 46.2 °F /  7.9 °C 42.2 °F /  5.7 °C 29.94in /  1013.8hPa Calm     86% 0.00in /  0mm
04:00 46.0 °F /  7.8 °C 42.0 °F /  5.6 °C 29.94in /  1013.8hPa Calm     86% 0.00in /  0mm
04:05 45.7 °F /  7.6 °C 42.1 °F /  5.6 °C 29.94in /  1013.8hPa Calm     87% 0.00in /  0mm
04:10 45.8 °F /  7.7 °C 42.2 °F /  5.7 °C 29.94in /  1013.8hPa Calm     87% 0.00in /  0mm
04:15 45.7 °F /  7.6 °C 42.1 °F /  5.6 °C 29.94in /  1013.8hPa Calm     87% 0.00in /  0mm
04:20 45.8 °F /  7.7 °C 41.9 °F /  5.5 °C 29.94in /  1013.8hPa Calm     86% 0.00in /  0mm
04:25 45.7 °F /  7.6 °C 42.1 °F /  5.6 °C 29.94in /  1013.8hPa Calm     87% 0.00in /  0mm
04:30 45.5 °F /  7.5 °C 41.9 °F /  5.5 °C 29.94in /  1013.8hPa Calm     87% 0.00in /  0mm
04:35 45.6 °F /  7.6 °C 42.0 °F /  5.6 °C 29.94in /  1013.8hPa Calm     87% 0.00in /  0mm
04:40 45.6 °F /  7.6 °C 42.0 °F /  5.6 °C 29.94in /  1013.8hPa Calm     87% 0.00in /  0mm
04:45 45.6 °F /  7.6 °C 42.0 °F /  5.6 °C 29.94in /  1013.8hPa Calm     87% 0.00in /  0mm
04:50 45.5 °F /  7.5 °C 41.9 °F /  5.5 °C 29.94in /  1013.8hPa Calm     87% 0.00in /  0mm
04:55 45.6 °F /  7.6 °C 42.3 °F /  5.7 °C 29.94in /  1013.8hPa Calm     88% 0.00in /  0mm
05:00 45.8 °F /  7.7 °C 42.4 °F /  5.8 °C 29.94in /  1013.8hPa Calm     88% 0.00in /  0mm
05:05 46.0 °F /  7.8 °C 42.3 °F /  5.7 °C 29.93in /  1013.4hPa Calm     87% 0.00in /  0mm
05:10 46.3 °F /  7.9 °C 42.6 °F /  5.9 °C 29.94in /  1013.8hPa Calm     87% 0.00in /  0mm
05:15 46.5 °F /  8.1 °C 42.8 °F /  6 °C 29.94in /  1013.8hPa Calm     87% 0.00in /  0mm
05:20 46.4 °F /  8 °C 42.4 °F /  5.8 °C 29.94in /  1013.8hPa Calm     86% 0.00in /  0mm
05:25 46.4 °F /  8 °C 42.4 °F /  5.8 °C 29.94in /  1013.8hPa Calm     86% 0.00in /  0mm
05:30 46.5 °F /  8.1 °C 42.5 °F /  5.8 °C 29.94in /  1013.8hPa Calm     86% 0.00in /  0mm
05:35 46.7 °F /  8.2 °C 42.7 °F /  5.9 °C 29.94in /  1013.8hPa Calm     86% 0.00in /  0mm
05:40 47.0 °F /  8.3 °C 43.0 °F /  6.1 °C 29.94in /  1013.8hPa Calm     86% 0.00in /  0mm
05:45 47.1 °F /  8.4 °C 42.8 °F /  6 °C 29.94in /  1013.8hPa Calm     85% 0.00in /  0mm
05:50 47.2 °F /  8.4 °C 42.9 °F /  6.1 °C 29.94in /  1013.8hPa Calm     85% 0.00in /  0mm
05:55 47.2 °F /  8.4 °C 42.9 °F /  6.1 °C 29.94in /  1013.8hPa Calm     85% 0.00in /  0mm
06:00 47.3 °F /  8.5 °C 43.0 °F /  6.1 °C 29.94in /  1013.8hPa Calm     85% 0.00in /  0mm
06:05 47.6 °F /  8.7 °C 43.3 °F /  6.3 °C 29.94in /  1013.8hPa Calm     85% 0.00in /  0mm
06:10 47.7 °F /  8.7 °C 43.4 °F /  6.3 °C 29.93in /  1013.4hPa Calm     85% 0.00in /  0mm
06:15 47.8 °F /  8.8 °C 43.5 °F /  6.4 °C 29.93in /  1013.4hPa Calm     85% 0.00in /  0mm
06:20 48.1 °F /  8.9 °C 43.8 °F /  6.6 °C 29.93in /  1013.4hPa Calm   2.0mph /  3.2km/h 85% 0.00in /  0mm
06:25 49.0 °F /  9.4 °C 44.7 °F /  7.1 °C 29.92in /  1013.1hPa Calm   4.0mph /  6.4km/h 85% 0.00in /  0mm
06:30 49.6 °F /  9.8 °C 44.6 °F /  7 °C 29.92in /  1013.1hPa Calm   2.0mph /  3.2km/h 83% 0.00in /  0mm
06:35 49.9 °F /  9.9 °C 44.6 °F /  7 °C 29.93in /  1013.4hPa Calm   2.0mph /  3.2km/h 82% 0.00in /  0mm
06:40 50.1 °F /  10.1 °C 44.8 °F /  7.1 °C 29.93in /  1013.4hPa Calm   1.0mph /  1.6km/h 82% 0.00in /  0mm
06:45 50.3 °F /  10.2 °C 45.0 °F /  7.2 °C 29.93in /  1013.4hPa Calm   2.0mph /  3.2km/h 82% 0.00in /  0mm
06:50 50.6 °F /  10.3 °C 45.3 °F /  7.4 °C 29.93in /  1013.4hPa Calm   2.0mph /  3.2km/h 82% 0.00in /  0mm
06:55 51.1 °F /  10.6 °C 45.5 °F /  7.5 °C 29.93in /  1013.4hPa South 1.0mph /  1.6km/h 2.0mph /  3.2km/h 81% 0.00in /  0mm
07:00 51.6 °F /  10.9 °C 45.6 °F /  7.6 °C 29.93in /  1013.4hPa South 2.0mph /  3.2km/h 3.0mph /  4.8km/h 80% 0.00in /  0mm
07:05 52.1 °F /  11.2 °C 45.8 °F /  7.7 °C 29.93in /  1013.4hPa South 1.0mph /  1.6km/h 4.0mph /  6.4km/h 79% 0.00in /  0mm
07:10 52.5 °F /  11.4 °C 46.2 °F /  7.9 °C 29.92in /  1013.1hPa Calm   2.0mph /  3.2km/h 79% 0.00in /  0mm
07:15 52.9 °F /  11.6 °C 46.2 °F /  7.9 °C 29.92in /  1013.1hPa SSW 1.0mph /  1.6km/h 3.0mph /  4.8km/h 78% 0.00in /  0mm
07:20 53.4 °F /  11.9 °C 46.7 °F /  8.2 °C 29.92in /  1013.1hPa Calm   1.0mph /  1.6km/h 78% 0.00in /  0mm
07:25 53.7 °F /  12.1 °C 46.7 °F /  8.2 °C 29.93in /  1013.4hPa SSW 2.0mph /  3.2km/h 2.0mph /  3.2km/h 77% 0.00in /  0mm
07:30 54.0 °F /  12.2 °C 47.0 °F /  8.3 °C 29.93in /  1013.4hPa Calm   3.0mph /  4.8km/h 77% 0.00in /  0mm
07:35 54.2 °F /  12.3 °C 47.1 °F /  8.4 °C 29.93in /  1013.4hPa SSW 1.0mph /  1.6km/h 3.0mph /  4.8km/h 77% 0.00in /  0mm
07:40 54.3 °F /  12.4 °C 46.9 °F /  8.3 °C 29.93in /  1013.4hPa SSW 1.0mph /  1.6km/h 3.0mph /  4.8km/h 76% 0.00in /  0mm
07:45 54.6 °F /  12.6 °C 47.2 °F /  8.4 °C 29.93in /  1013.4hPa Calm   3.0mph /  4.8km/h 76% 0.00in /  0mm
07:50 55.1 °F /  12.8 °C 47.7 °F /  8.7 °C 29.93in /  1013.4hPa Calm   3.0mph /  4.8km/h 76% 0.00in /  0mm
07:55 55.9 °F /  13.3 °C 48.1 °F /  8.9 °C 29.93in /  1013.4hPa Calm   3.0mph /  4.8km/h 75% 0.00in /  0mm
08:00 56.7 °F /  13.7 °C 48.5 °F /  9.2 °C 29.93in /  1013.4hPa SSW 1.0mph /  1.6km/h 1.0mph /  1.6km/h 74% 0.00in /  0mm
08:05 57.1 °F /  13.9 °C 48.9 °F /  9.4 °C 29.93in /  1013.4hPa SW 1.0mph /  1.6km/h 3.0mph /  4.8km/h 74% 0.00in /  0mm
08:10 57.9 °F /  14.4 °C 49.7 °F /  9.8 °C 29.93in /  1013.4hPa SW 1.0mph /  1.6km/h 3.0mph /  4.8km/h 74% 0.00in /  0mm
08:15 58.6 °F /  14.8 °C 49.6 °F /  9.8 °C 29.93in /  1013.4hPa SW 3.0mph /  4.8km/h 4.0mph /  6.4km/h 72% 0.00in /  0mm
08:20 59.3 °F /  15.2 °C 49.1 °F /  9.5 °C 29.92in /  1013.1hPa Calm   5.0mph /  8km/h 69% 0.00in /  0mm
08:25 59.8 °F /  15.4 °C 49.2 °F /  9.6 °C 29.92in /  1013.1hPa SW 2.0mph /  3.2km/h 7.0mph /  11.3km/h 68% 0.00in /  0mm
08:30 60.2 °F /  15.7 °C 49.6 °F /  9.8 °C 29.92in /  1013.1hPa SW 2.0mph /  3.2km/h 5.0mph /  8km/h 68% 0.00in /  0mm
08:35 60.6 °F /  15.9 °C 50.0 °F /  10 °C 29.92in /  1013.1hPa WSW 2.0mph /  3.2km/h 5.0mph /  8km/h 68% 0.00in /  0mm
08:40 61.0 °F /  16.1 °C 50.0 °F /  10 °C 29.92in /  1013.1hPa WSW 1.0mph /  1.6km/h 4.0mph /  6.4km/h 67% 0.00in /  0mm
08:45 61.5 °F /  16.4 °C 49.6 °F /  9.8 °C 29.92in /  1013.1hPa WSW 1.0mph /  1.6km/h 6.0mph /  9.7km/h 65% 0.00in /  0mm
08:50 62.0 °F /  16.7 °C 49.7 °F /  9.8 °C 29.93in /  1013.4hPa SW 3.0mph /  4.8km/h 7.0mph /  11.3km/h 64% 0.00in /  0mm
08:55 62.1 °F /  16.7 °C 49.8 °F /  9.9 °C 29.92in /  1013.1hPa West 2.0mph /  3.2km/h 7.0mph /  11.3km/h 64% 0.00in /  0mm
09:00 62.3 °F /  16.8 °C 49.5 °F /  9.7 °C 29.92in /  1013.1hPa WSW 2.0mph /  3.2km/h 8.0mph /  12.9km/h 63% 0.00in /  0mm
09:05 63.1 °F /  17.3 °C 51.1 °F /  10.6 °C 29.92in /  1013.1hPa WSW 4.0mph /  6.4km/h 8.0mph /  12.9km/h 65% 0.00in /  0mm
09:10 63.3 °F /  17.4 °C 50.1 °F /  10.1 °C 29.92in /  1013.1hPa SW 3.0mph /  4.8km/h 8.0mph /  12.9km/h 62% 0.00in /  0mm
09:15 63.5 °F /  17.5 °C 50.2 °F /  10.1 °C 29.92in /  1013.1hPa SW 3.0mph /  4.8km/h 10.0mph /  16.1km/h 62% 0.00in /  0mm
09:20 63.4 °F /  17.4 °C 50.1 °F /  10.1 °C 29.92in /  1013.1hPa WSW 4.0mph /  6.4km/h 10.0mph /  16.1km/h 62% 0.00in /  0mm
09:25 63.8 °F /  17.7 °C 50.1 °F /  10.1 °C 29.92in /  1013.1hPa SW 6.0mph /  9.7km/h 10.0mph /  16.1km/h 61% 0.00in /  0mm
09:30 63.8 °F /  17.7 °C 50.1 °F /  10.1 °C 29.92in /  1013.1hPa SW 5.0mph /  8km/h 10.0mph /  16.1km/h 61% 0.00in /  0mm
09:35 64.3 °F /  17.9 °C 49.7 °F /  9.8 °C 29.92in /  1013.1hPa SW 2.0mph /  3.2km/h 10.0mph /  16.1km/h 59% 0.00in /  0mm
09:40 64.2 °F /  17.9 °C 49.1 °F /  9.5 °C 29.92in /  1013.1hPa SW 3.0mph /  4.8km/h 11.0mph /  17.7km/h 58% 0.00in /  0mm
09:45 64.2 °F /  17.9 °C 49.6 °F /  9.8 °C 29.92in /  1013.1hPa WSW 6.0mph /  9.7km/h 10.0mph /  16.1km/h 59% 0.00in /  0mm
09:50 64.8 °F /  18.2 °C 51.0 °F /  10.6 °C 29.92in /  1013.1hPa WSW 5.0mph /  8km/h 8.0mph /  12.9km/h 61% 0.00in /  0mm
09:55 64.0 °F /  17.8 °C 49.4 °F /  9.7 °C 29.92in /  1013.1hPa WSW 5.0mph /  8km/h 12.0mph /  19.3km/h 59% 0.00in /  0mm
10:00 64.0 °F /  17.8 °C 49.8 °F /  9.9 °C 29.92in /  1013.1hPa SW 5.0mph /  8km/h 12.0mph /  19.3km/h 60% 0.00in /  0mm
10:05 64.2 °F /  17.9 °C 50.0 °F /  10 °C 29.92in /  1013.1hPa SW 5.0mph /  8km/h 10.0mph /  16.1km/h 60% 0.00in /  0mm
10:10 64.6 °F /  18.1 °C 50.8 °F /  10.4 °C 29.92in /  1013.1hPa SW 5.0mph /  8km/h 10.0mph /  16.1km/h 61% 0.00in /  0mm
10:15 64.6 °F /  18.1 °C 49.5 °F /  9.7 °C 29.92in /  1013.1hPa SW 4.0mph /  6.4km/h 11.0mph /  17.7km/h 58% 0.00in /  0mm
10:20 64.0 °F /  17.8 °C 49.4 °F /  9.7 °C 29.92in /  1013.1hPa WSW 5.0mph /  8km/h 11.0mph /  17.7km/h 59% 0.00in /  0mm
10:25 63.9 °F /  17.7 °C 49.3 °F /  9.6 °C 29.92in /  1013.1hPa WSW 2.0mph /  3.2km/h 10.0mph /  16.1km/h 59% 0.00in /  0mm
10:30 64.1 °F /  17.8 °C 49.5 °F /  9.7 °C 29.92in /  1013.1hPa West 5.0mph /  8km/h 10.0mph /  16.1km/h 59% 0.00in /  0mm
10:35 64.5 °F /  18.1 °C 49.8 °F /  9.9 °C 29.92in /  1013.1hPa SW 5.0mph /  8km/h 11.0mph /  17.7km/h 59% 0.00in /  0mm
10:40 64.3 °F /  17.9 °C 49.2 °F /  9.6 °C 29.92in /  1013.1hPa WSW 7.0mph /  11.3km/h 12.0mph /  19.3km/h 58% 0.00in /  0mm
10:45 64.6 °F /  18.1 °C 49.9 °F /  9.9 °C 29.92in /  1013.1hPa WSW 6.0mph /  9.7km/h 11.0mph /  17.7km/h 59% 0.00in /  0mm
10:50 64.5 °F /  18.1 °C 49.8 °F /  9.9 °C 29.93in /  1013.4hPa West 7.0mph /  11.3km/h 9.0mph /  14.5km/h 59% 0.00in /  0mm
10:55 64.4 °F /  18 °C 49.3 °F /  9.6 °C 29.92in /  1013.1hPa WSW 7.0mph /  11.3km/h 11.0mph /  17.7km/h 58% 0.00in /  0mm
11:00 64.7 °F /  18.2 °C 49.1 °F /  9.5 °C 29.93in /  1013.4hPa WSW 5.0mph /  8km/h 11.0mph /  17.7km/h 57% 0.00in /  0mm
11:05 64.3 °F /  17.9 °C 48.7 °F /  9.3 °C 29.92in /  1013.1hPa WSW 5.0mph /  8km/h 14.0mph /  22.5km/h 57% 0.00in /  0mm
11:10 64.3 °F /  17.9 °C 48.7 °F /  9.3 °C 29.92in /  1013.1hPa West 7.0mph /  11.3km/h 12.0mph /  19.3km/h 57% 0.00in /  0mm
11:15 64.5 °F /  18.1 °C 49.4 °F /  9.7 °C 29.91in /  1012.8hPa WSW 10.0mph /  16.1km/h 14.0mph /  22.5km/h 58% 0.00in /  0mm
11:20 65.3 °F /  18.5 °C 49.7 °F /  9.8 °C 29.91in /  1012.8hPa SW 9.0mph /  14.5km/h 12.0mph /  19.3km/h 57% 0.00in /  0mm
11:25 65.8 °F /  18.8 °C 50.1 °F /  10.1 °C 29.91in /  1012.8hPa West 4.0mph /  6.4km/h 12.0mph /  19.3km/h 57% 0.00in /  0mm
11:30 66.1 °F /  18.9 °C 49.5 °F /  9.7 °C 29.91in /  1012.8hPa WSW 6.0mph /  9.7km/h 12.0mph /  19.3km/h 55% 0.00in /  0mm
11:35 66.6 °F /  19.2 °C 50.4 °F /  10.2 °C 29.91in /  1012.8hPa WSW 6.0mph /  9.7km/h 12.0mph /  19.3km/h 56% 0.00in /  0mm
11:40 66.8 °F /  19.3 °C 49.6 °F /  9.8 °C 29.91in /  1012.8hPa WSW 6.0mph /  9.7km/h 12.0mph /  19.3km/h 54% 0.00in /  0mm
11:45 67.0 °F /  19.4 °C 51.3 °F /  10.7 °C 29.91in /  1012.8hPa WSW 7.0mph /  11.3km/h 15.0mph /  24.1km/h 57% 0.00in /  0mm
11:50 67.4 °F /  19.7 °C 50.7 °F /  10.4 °C 29.90in /  1012.4hPa WSW 6.0mph /  9.7km/h 15.0mph /  24.1km/h 55% 0.00in /  0mm
11:55 67.7 °F /  19.8 °C 50.9 °F /  10.5 °C 29.90in /  1012.4hPa West 4.0mph /  6.4km/h 10.0mph /  16.1km/h 55% 0.00in /  0mm
12:00 67.2 °F /  19.6 °C 49.5 °F /  9.7 °C 29.90in /  1012.4hPa West 3.0mph /  4.8km/h 10.0mph /  16.1km/h 53% 0.00in /  0mm
12:05 67.4 °F /  19.7 °C 50.7 °F /  10.4 °C 29.90in /  1012.4hPa WSW 6.0mph /  9.7km/h 10.0mph /  16.1km/h 55% 0.00in /  0mm
12:10 68.2 °F /  20.1 °C 50.4 °F /  10.2 °C 29.90in /  1012.4hPa West 3.0mph /  4.8km/h 10.0mph /  16.1km/h 53% 0.00in /  0mm
12:15 68.5 °F /  20.3 °C 52.2 °F /  11.2 °C 29.90in /  1012.4hPa WNW 4.0mph /  6.4km/h 9.0mph /  14.5km/h 56% 0.00in /  0mm
12:20 68.4 °F /  20.2 °C 50.6 °F /  10.3 °C 29.90in /  1012.4hPa SW 1.0mph /  1.6km/h 10.0mph /  16.1km/h 53% 0.00in /  0mm
12:25 68.2 °F /  20.1 °C 49.9 °F /  9.9 °C 29.89in /  1012.1hPa WSW 6.0mph /  9.7km/h 10.0mph /  16.1km/h 52% 0.00in /  0mm
12:30 68.5 °F /  20.3 °C 52.2 °F /  11.2 °C 29.89in /  1012.1hPa WSW 5.0mph /  8km/h 10.0mph /  16.1km/h 56% 0.00in /  0mm
12:35 68.7 °F /  20.4 °C 50.9 °F /  10.5 °C 29.89in /  1012.1hPa WSW 5.0mph /  8km/h 11.0mph /  17.7km/h 53% 0.00in /  0mm
12:40 68.8 °F /  20.4 °C 51.0 °F /  10.6 °C 29.89in /  1012.1hPa SW 6.0mph /  9.7km/h 12.0mph /  19.3km/h 53% 0.00in /  0mm
12:45 69.4 °F /  20.8 °C 51.0 °F /  10.6 °C 29.88in /  1011.7hPa West 3.0mph /  4.8km/h 8.0mph /  12.9km/h 52% 0.00in /  0mm
12:55 70.0 °F /  21.1 °C 50.0 °F /  10 °C 29.88in /  1011.7hPa West 5.0mph /  8km/h 13.0mph /  20.9km/h 49% 0.00in /  0mm
13:00 69.7 °F /  20.9 °C 51.8 °F /  11 °C 29.88in /  1011.7hPa WSW 6.0mph /  9.7km/h 11.0mph /  17.7km/h 53% 0.00in /  0mm
13:05 69.5 °F /  20.8 °C 52.6 °F /  11.4 °C 29.88in /  1011.7hPa West 6.0mph /  9.7km/h 11.0mph /  17.7km/h 55% 0.00in /  0mm
13:10 70.1 °F /  21.2 °C 51.1 °F /  10.6 °C 29.87in /  1011.4hPa SSW 3.0mph /  4.8km/h 7.0mph /  11.3km/h 51% 0.00in /  0mm
13:15 69.8 °F /  21 °C 50.3 °F /  10.2 °C 29.87in /  1011.4hPa WSW 6.0mph /  9.7km/h 9.0mph /  14.5km/h 50% 0.00in /  0mm
13:20 69.8 °F /  21 °C 50.9 °F /  10.5 °C 29.87in /  1011.4hPa WSW 4.0mph /  6.4km/h 8.0mph /  12.9km/h 51% 0.00in /  0mm
13:25 70.5 °F /  21.4 °C 53.6 °F /  12 °C 29.87in /  1011.4hPa West 5.0mph /  8km/h 9.0mph /  14.5km/h 55% 0.00in /  0mm
13:30 71.0 °F /  21.7 °C 51.4 °F /  10.8 °C 29.87in /  1011.4hPa West 4.0mph /  6.4km/h 11.0mph /  17.7km/h 50% 0.00in /  0mm
13:35 71.3 °F /  21.8 °C 53.8 °F /  12.1 °C 29.87in /  1011.4hPa West 4.0mph /  6.4km/h 11.0mph /  17.7km/h 54% 0.00in /  0mm
13:40 70.9 °F /  21.6 °C 53.4 °F /  11.9 °C 29.86in /  1011.1hPa West 5.0mph /  8km/h 8.0mph /  12.9km/h 54% 0.00in /  0mm
13:45 71.1 °F /  21.7 °C 51.5 °F /  10.8 °C 29.86in /  1011.1hPa SW 3.0mph /  4.8km/h 9.0mph /  14.5km/h 50% 0.00in /  0mm
13:50 71.3 °F /  21.8 °C 52.8 °F /  11.6 °C 29.86in /  1011.1hPa WSW 6.0mph /  9.7km/h 8.0mph /  12.9km/h 52% 0.00in /  0mm
13:55 70.9 °F /  21.6 °C 53.4 °F /  11.9 °C 29.86in /  1011.1hPa WSW 4.0mph /  6.4km/h 8.0mph /  12.9km/h 54% 0.00in /  0mm
14:00 71.4 °F /  21.9 °C 53.4 °F /  11.9 °C 29.86in /  1011.1hPa WSW 4.0mph /  6.4km/h 10.0mph /  16.1km/h 53% 0.00in /  0mm
14:05 71.8 °F /  22.1 °C 52.2 °F /  11.2 °C 29.86in /  1011.1hPa West 2.0mph /  3.2km/h 9.0mph /  14.5km/h 50% 0.00in /  0mm
14:10 72.1 °F /  22.3 °C 50.8 °F /  10.4 °C 29.85in /  1010.7hPa SSW 4.0mph /  6.4km/h 8.0mph /  12.9km/h 47% 0.00in /  0mm
14:15 71.1 °F /  21.7 °C 49.8 °F /  9.9 °C 29.85in /  1010.7hPa SSW 4.0mph /  6.4km/h 8.0mph /  12.9km/h 47% 0.00in /  0mm
14:20 71.5 °F /  21.9 °C 50.8 °F /  10.4 °C 29.85in /  1010.7hPa SW 9.0mph /  14.5km/h 9.0mph /  14.5km/h 48% 0.00in /  0mm
14:25 71.9 °F /  22.2 °C 52.8 °F /  11.6 °C 29.85in /  1010.7hPa SW 4.0mph /  6.4km/h 9.0mph /  14.5km/h 51% 0.00in /  0mm
14:30 71.9 °F /  22.2 °C 50.6 °F /  10.3 °C 29.85in /  1010.7hPa SW 4.0mph /  6.4km/h 10.0mph /  16.1km/h 47% 0.00in /  0mm
14:35 71.8 °F /  22.1 °C 51.0 °F /  10.6 °C 29.84in /  1010.4hPa WSW 5.0mph /  8km/h 9.0mph /  14.5km/h 48% 0.00in /  0mm
14:40 72.4 °F /  22.4 °C 49.9 °F /  9.9 °C 29.84in /  1010.4hPa WNW 5.0mph /  8km/h 7.0mph /  11.3km/h 45% 0.00in /  0mm
14:45 72.3 °F /  22.4 °C 49.2 °F /  9.6 °C 29.83in /  1010hPa West 4.0mph /  6.4km/h 7.0mph /  11.3km/h 44% 0.00in /  0mm
14:50 72.8 °F /  22.7 °C 52.0 °F /  11.1 °C 29.83in /  1010hPa West 4.0mph /  6.4km/h 7.0mph /  11.3km/h 48% 0.00in /  0mm
14:55 72.0 °F /  22.2 °C 48.3 °F /  9.1 °C 29.83in /  1010hPa WSW 3.0mph /  4.8km/h 8.0mph /  12.9km/h 43% 0.00in /  0mm
15:00 72.3 °F /  22.4 °C 49.2 °F /  9.6 °C 29.83in /  1010hPa SW 4.0mph /  6.4km/h 8.0mph /  12.9km/h 44% 0.00in /  0mm
15:05 73.2 °F /  22.9 °C 48.7 °F /  9.3 °C 29.83in /  1010hPa WSW 4.0mph /  6.4km/h 8.0mph /  12.9km/h 42% 0.00in /  0mm
15:10 73.1 °F /  22.8 °C 48.0 °F /  8.9 °C 29.83in /  1010hPa SW 5.0mph /  8km/h 7.0mph /  11.3km/h 41% 0.00in /  0mm
15:15 73.2 °F /  22.9 °C 48.7 °F /  9.3 °C 29.82in /  1009.7hPa WSW 2.0mph /  3.2km/h 8.0mph /  12.9km/h 42% 0.00in /  0mm
15:20 73.0 °F /  22.8 °C 47.9 °F /  8.8 °C 29.82in /  1009.7hPa WSW 4.0mph /  6.4km/h 11.0mph /  17.7km/h 41% 0.00in /  0mm
15:25 72.3 °F /  22.4 °C 49.2 °F /  9.6 °C 29.82in /  1009.7hPa West 4.0mph /  6.4km/h 6.0mph /  9.7km/h 44% 0.00in /  0mm
15:30 73.2 °F /  22.9 °C 48.7 °F /  9.3 °C 29.81in /  1009.4hPa South 1.0mph /  1.6km/h 7.0mph /  11.3km/h 42% 0.00in /  0mm
15:35 74.0 °F /  23.3 °C 49.4 °F /  9.7 °C 29.82in /  1009.7hPa WSW 3.0mph /  4.8km/h 5.0mph /  8km/h 42% 0.00in /  0mm
15:40 74.8 °F /  23.8 °C 52.0 °F /  11.1 °C 29.81in /  1009.4hPa NW 4.0mph /  6.4km/h 8.0mph /  12.9km/h 45% 0.00in /  0mm
15:45 74.7 °F /  23.7 °C 50.1 °F /  10.1 °C 29.81in /  1009.4hPa West 1.0mph /  1.6km/h 7.0mph /  11.3km/h 42% 0.00in /  0mm
15:50 74.3 °F /  23.5 °C 49.7 °F /  9.8 °C 29.81in /  1009.4hPa WNW 3.0mph /  4.8km/h 8.0mph /  12.9km/h 42% 0.00in /  0mm
15:55 74.6 °F /  23.7 °C 49.3 °F /  9.6 °C 29.81in /  1009.4hPa WNW 3.0mph /  4.8km/h 8.0mph /  12.9km/h 41% 0.00in /  0mm
16:00 74.7 °F /  23.7 °C 53.7 °F /  12.1 °C 29.81in /  1009.4hPa West 2.0mph /  3.2km/h 6.0mph /  9.7km/h 48% 0.00in /  0mm
16:05 74.5 °F /  23.6 °C 49.2 °F /  9.6 °C 29.81in /  1009.4hPa West 2.0mph /  3.2km/h 6.0mph /  9.7km/h 41% 0.00in /  0mm
16:10 74.5 °F /  23.6 °C 51.2 °F /  10.7 °C 29.80in /  1009hPa WNW 2.0mph /  3.2km/h 6.0mph /  9.7km/h 44% 0.00in /  0mm
16:15 75.1 °F /  23.9 °C 52.9 °F /  11.6 °C 29.80in /  1009hPa West 4.0mph /  6.4km/h 7.0mph /  11.3km/h 46% 0.00in /  0mm
16:20 75.0 °F /  23.9 °C 50.3 °F /  10.2 °C 29.79in /  1008.7hPa WNW 4.0mph /  6.4km/h 7.0mph /  11.3km/h 42% 0.00in /  0mm
16:25 74.4 °F /  23.6 °C 53.4 °F /  11.9 °C 29.79in /  1008.7hPa NW 3.0mph /  4.8km/h 6.0mph /  9.7km/h 48% 0.00in /  0mm
16:30 74.2 °F /  23.4 °C 49.0 °F /  9.4 °C 29.79in /  1008.7hPa WSW 1.0mph /  1.6km/h 7.0mph /  11.3km/h 41% 0.00in /  0mm
16:35 74.0 °F /  23.3 °C 48.8 °F /  9.3 °C 29.79in /  1008.7hPa SW 4.0mph /  6.4km/h 5.0mph /  8km/h 41% 0.00in /  0mm
16:40 73.8 °F /  23.2 °C 49.3 °F /  9.6 °C 29.79in /  1008.7hPa SSE 2.0mph /  3.2km/h 6.0mph /  9.7km/h 42% 0.00in /  0mm
16:45 74.0 °F /  23.3 °C 50.7 °F /  10.4 °C 29.78in /  1008.4hPa NE 4.0mph /  6.4km/h 7.0mph /  11.3km/h 44% 0.00in /  0mm
16:50 74.3 °F /  23.5 °C 52.8 °F /  11.6 °C 29.78in /  1008.4hPa East 3.0mph /  4.8km/h 7.0mph /  11.3km/h 47% 0.00in /  0mm
16:55 74.8 °F /  23.8 °C 48.9 °F /  9.4 °C 29.78in /  1008.4hPa SE 2.0mph /  3.2km/h 5.0mph /  8km/h 40% 0.00in /  0mm
17:00 74.9 °F /  23.8 °C 50.9 °F /  10.5 °C 29.77in /  1008hPa West 1.0mph /  1.6km/h 4.0mph /  6.4km/h 43% 0.00in /  0mm
17:05 74.7 °F /  23.7 °C 50.1 °F /  10.1 °C 29.77in /  1008hPa WNW 4.0mph /  6.4km/h 5.0mph /  8km/h 42% 0.00in /  0mm
17:10 74.1 °F /  23.4 °C 48.9 °F /  9.4 °C 29.77in /  1008hPa North 2.0mph /  3.2km/h 5.0mph /  8km/h 41% 0.00in /  0mm
17:15 74.8 °F /  23.8 °C 52.6 °F /  11.4 °C 29.77in /  1008hPa NW 2.0mph /  3.2km/h 5.0mph /  8km/h 46% 0.00in /  0mm
17:20 74.2 °F /  23.4 °C 48.3 °F /  9.1 °C 29.77in /  1008hPa West 2.0mph /  3.2km/h 5.0mph /  8km/h 40% 0.00in /  0mm
17:25 75.0 °F /  23.9 °C 51.6 °F /  10.9 °C 29.76in /  1007.7hPa WSW 2.0mph /  3.2km/h 4.0mph /  6.4km/h 44% 0.00in /  0mm
17:30 75.1 °F /  23.9 °C 51.7 °F /  10.9 °C 29.76in /  1007.7hPa West 2.0mph /  3.2km/h 5.0mph /  8km/h 44% 0.00in /  0mm
17:35 75.0 °F /  23.9 °C 50.3 °F /  10.2 °C 29.76in /  1007.7hPa NE 1.0mph /  1.6km/h 4.0mph /  6.4km/h 42% 0.00in /  0mm
17:40 74.7 °F /  23.7 °C 50.7 °F /  10.4 °C 29.76in /  1007.7hPa East 1.0mph /  1.6km/h 8.0mph /  12.9km/h 43% 0.00in /  0mm
17:45 74.8 °F /  23.8 °C 49.5 °F /  9.7 °C 29.76in /  1007.7hPa ENE 3.0mph /  4.8km/h 8.0mph /  12.9km/h 41% 0.00in /  0mm
17:50 74.5 °F /  23.6 °C 49.2 °F /  9.6 °C 29.76in /  1007.7hPa ESE 2.0mph /  3.2km/h 5.0mph /  8km/h 41% 0.00in /  0mm
17:55 74.7 °F /  23.7 °C 50.1 °F /  10.1 °C 29.76in /  1007.7hPa SSW 3.0mph /  4.8km/h 6.0mph /  9.7km/h 42% 0.00in /  0mm
18:00 74.4 °F /  23.6 °C 50.4 °F /  10.2 °C 29.76in /  1007.7hPa WNW 3.0mph /  4.8km/h 3.0mph /  4.8km/h 43% 0.00in /  0mm
18:05 74.5 °F /  23.6 °C 49.9 °F /  9.9 °C 29.76in /  1007.7hPa NW 3.0mph /  4.8km/h 4.0mph /  6.4km/h 42% 0.00in /  0mm
18:10 74.4 °F /  23.6 °C 50.4 °F /  10.2 °C 29.76in /  1007.7hPa East 2.0mph /  3.2km/h 7.0mph /  11.3km/h 43% 0.00in /  0mm
18:15 74.3 °F /  23.5 °C 50.4 °F /  10.2 °C 29.76in /  1007.7hPa NE 3.0mph /  4.8km/h 7.0mph /  11.3km/h 43% 0.00in /  0mm
18:20 73.8 °F /  23.2 °C 51.7 °F /  10.9 °C 29.76in /  1007.7hPa NE 2.0mph /  3.2km/h 7.0mph /  11.3km/h 46% 0.00in /  0mm
18:25 73.7 °F /  23.2 °C 50.4 °F /  10.2 °C 29.75in /  1007.3hPa North 2.0mph /  3.2km/h 4.0mph /  6.4km/h 44% 0.00in /  0mm
18:30 74.0 °F /  23.3 °C 51.3 °F /  10.7 °C 29.75in /  1007.3hPa NNE 1.0mph /  1.6km/h 4.0mph /  6.4km/h 45% 0.00in /  0mm
18:35 74.0 °F /  23.3 °C 50.7 °F /  10.4 °C 29.75in /  1007.3hPa ENE 4.0mph /  6.4km/h 7.0mph /  11.3km/h 44% 0.00in /  0mm
18:40 73.7 °F /  23.2 °C 51.0 °F /  10.6 °C 29.75in /  1007.3hPa ENE 4.0mph /  6.4km/h 5.0mph /  8km/h 45% 0.00in /  0mm
18:45 73.9 °F /  23.3 °C 50.6 °F /  10.3 °C 29.75in /  1007.3hPa ENE 2.0mph /  3.2km/h 5.0mph /  8km/h 44% 0.00in /  0mm
18:50 73.8 °F /  23.2 °C 51.1 °F /  10.6 °C 29.75in /  1007.3hPa NE 7.0mph /  11.3km/h 8.0mph /  12.9km/h 45% 0.00in /  0mm
18:55 73.5 °F /  23.1 °C 50.9 °F /  10.5 °C 29.75in /  1007.3hPa Calm   7.0mph /  11.3km/h 45% 0.00in /  0mm
19:00 73.3 °F /  22.9 °C 51.3 °F /  10.7 °C 29.75in /  1007.3hPa Calm   2.0mph /  3.2km/h 46% 0.00in /  0mm
19:05 73.2 °F /  22.9 °C 50.6 °F /  10.3 °C 29.75in /  1007.3hPa NE 2.0mph /  3.2km/h 7.0mph /  11.3km/h 45% 0.00in /  0mm
19:10 72.9 °F /  22.7 °C 50.3 °F /  10.2 °C 29.75in /  1007.3hPa NE 2.0mph /  3.2km/h 7.0mph /  11.3km/h 45% 0.00in /  0mm
19:15 72.4 °F /  22.4 °C 50.4 °F /  10.2 °C 29.75in /  1007.3hPa North 1.0mph /  1.6km/h 3.0mph /  4.8km/h 46% 0.00in /  0mm
19:20 72.5 °F /  22.5 °C 50.5 °F /  10.3 °C 29.75in /  1007.3hPa North 1.0mph /  1.6km/h 3.0mph /  4.8km/h 46% 0.00in /  0mm
19:25 72.7 °F /  22.6 °C 50.7 °F /  10.4 °C 29.75in /  1007.3hPa NNE 2.0mph /  3.2km/h 5.0mph /  8km/h 46% 0.00in /  0mm
19:30 72.2 °F /  22.3 °C 49.7 °F /  9.8 °C 29.74in /  1007hPa NE 3.0mph /  4.8km/h 5.0mph /  8km/h 45% 0.00in /  0mm
19:35 72.1 °F /  22.3 °C 50.8 °F /  10.4 °C 29.74in /  1007hPa NE 4.0mph /  6.4km/h 6.0mph /  9.7km/h 47% 0.00in /  0mm
19:40 72.2 °F /  22.3 °C 49.7 °F /  9.8 °C 29.75in /  1007.3hPa NE 2.0mph /  3.2km/h 6.0mph /  9.7km/h 45% 0.00in /  0mm
19:45 72.2 °F /  22.3 °C 49.7 °F /  9.8 °C 29.75in /  1007.3hPa NE 3.0mph /  4.8km/h 9.0mph /  14.5km/h 45% 0.00in /  0mm
19:50 72.1 °F /  22.3 °C 50.2 °F /  10.1 °C 29.75in /  1007.3hPa ENE 3.0mph /  4.8km/h 8.0mph /  12.9km/h 46% 0.00in /  0mm
19:55 71.9 °F /  22.2 °C 50.0 °F /  10 °C 29.75in /  1007.3hPa NE 2.0mph /  3.2km/h 10.0mph /  16.1km/h 46% 0.00in /  0mm
20:00 71.6 °F /  22 °C 49.7 °F /  9.8 °C 29.74in /  1007hPa NE 1.0mph /  1.6km/h 9.0mph /  14.5km/h 46% 0.00in /  0mm
20:05 70.9 °F /  21.6 °C 50.2 °F /  10.1 °C 29.74in /  1007hPa NE 2.0mph /  3.2km/h 3.0mph /  4.8km/h 48% 0.00in /  0mm
20:10 70.6 °F /  21.4 °C 50.0 °F /  10 °C 29.74in /  1007hPa NE 1.0mph /  1.6km/h 3.0mph /  4.8km/h 48% 0.00in /  0mm
20:15 70.4 °F /  21.3 °C 50.3 °F /  10.2 °C 29.74in /  1007hPa NE 2.0mph /  3.2km/h 4.0mph /  6.4km/h 49% 0.00in /  0mm
20:20 70.3 °F /  21.3 °C 49.7 °F /  9.8 °C 29.74in /  1007hPa NE 2.0mph /  3.2km/h 4.0mph /  6.4km/h 48% 0.00in /  0mm
20:25 70.1 °F /  21.2 °C 49.5 °F /  9.7 °C 29.74in /  1007hPa NE 2.0mph /  3.2km/h 6.0mph /  9.7km/h 48% 0.00in /  0mm
20:30 70.0 °F /  21.1 °C 49.4 °F /  9.7 °C 29.74in /  1007hPa NE 3.0mph /  4.8km/h 6.0mph /  9.7km/h 48% 0.00in /  0mm
20:35 69.6 °F /  20.9 °C 49.6 °F /  9.8 °C 29.74in /  1007hPa NE 2.0mph /  3.2km/h 6.0mph /  9.7km/h 49% 0.00in /  0mm
20:40 69.4 °F /  20.8 °C 49.9 °F /  9.9 °C 29.74in /  1007hPa NE 4.0mph /  6.4km/h 6.0mph /  9.7km/h 50% 0.00in /  0mm
20:45 69.3 °F /  20.7 °C 49.9 °F /  9.9 °C 29.75in /  1007.3hPa NE 3.0mph /  4.8km/h 8.0mph /  12.9km/h 50% 0.00in /  0mm
20:50 69.0 °F /  20.6 °C 50.6 °F /  10.3 °C 29.75in /  1007.3hPa ENE 2.0mph /  3.2km/h 5.0mph /  8km/h 52% 0.00in /  0mm
20:55 68.8 °F /  20.4 °C 51.5 °F /  10.8 °C 29.75in /  1007.3hPa ENE 10.0mph /  16.1km/h 12.0mph /  19.3km/h 54% 0.00in /  0mm
21:00 68.5 °F /  20.3 °C 51.7 °F /  10.9 °C 29.75in /  1007.3hPa NE 4.0mph /  6.4km/h 10.0mph /  16.1km/h 55% 0.00in /  0mm
21:05 68.1 °F /  20.1 °C 52.3 °F /  11.3 °C 29.75in /  1007.3hPa NE 4.0mph /  6.4km/h 10.0mph /  16.1km/h 57% 0.00in /  0mm
21:10 67.7 °F /  19.8 °C 52.4 °F /  11.3 °C 29.75in /  1007.3hPa NE 4.0mph /  6.4km/h 10.0mph /  16.1km/h 58% 0.00in /  0mm
21:15 67.2 °F /  19.6 °C 52.4 °F /  11.3 °C 29.75in /  1007.3hPa NE 3.0mph /  4.8km/h 9.0mph /  14.5km/h 59% 0.00in /  0mm
21:20 67.1 °F /  19.5 °C 52.7 °F /  11.5 °C 29.75in /  1007.3hPa NE 3.0mph /  4.8km/h 11.0mph /  17.7km/h 60% 0.00in /  0mm
21:25 66.8 °F /  19.3 °C 52.9 °F /  11.6 °C 29.76in /  1007.7hPa NE 4.0mph /  6.4km/h 11.0mph /  17.7km/h 61% 0.00in /  0mm
21:30 66.4 °F /  19.1 °C 53.0 °F /  11.7 °C 29.75in /  1007.3hPa NE 2.0mph /  3.2km/h 6.0mph /  9.7km/h 62% 0.00in /  0mm
21:35 66.1 °F /  18.9 °C 52.7 °F /  11.5 °C 29.76in /  1007.7hPa NNE 3.0mph /  4.8km/h 8.0mph /  12.9km/h 62% 0.00in /  0mm
21:40 65.9 °F /  18.8 °C 52.5 °F /  11.4 °C 29.75in /  1007.3hPa NE 3.0mph /  4.8km/h 8.0mph /  12.9km/h 62% 0.00in /  0mm
21:45 65.8 °F /  18.8 °C 52.4 °F /  11.3 °C 29.76in /  1007.7hPa ENE 7.0mph /  11.3km/h 11.0mph /  17.7km/h 62% 0.00in /  0mm
21:50 65.7 °F /  18.7 °C 52.3 °F /  11.3 °C 29.76in /  1007.7hPa NE 3.0mph /  4.8km/h 11.0mph /  17.7km/h 62% 0.00in /  0mm
21:55 65.4 °F /  18.6 °C 52.5 °F /  11.4 °C 29.76in /  1007.7hPa ENE 5.0mph /  8km/h 9.0mph /  14.5km/h 63% 0.00in /  0mm
22:00 65.3 °F /  18.5 °C 52.4 °F /  11.3 °C 29.76in /  1007.7hPa NE 5.0mph /  8km/h 10.0mph /  16.1km/h 63% 0.00in /  0mm
22:05 65.1 °F /  18.4 °C 52.2 °F /  11.2 °C 29.76in /  1007.7hPa NE 5.0mph /  8km/h 9.0mph /  14.5km/h 63% 0.00in /  0mm
22:10 64.9 °F /  18.3 °C 52.4 °F /  11.3 °C 29.76in /  1007.7hPa NE 4.0mph /  6.4km/h 9.0mph /  14.5km/h 64% 0.00in /  0mm
22:15 64.6 °F /  18.1 °C 52.1 °F /  11.2 °C 29.76in /  1007.7hPa NE 4.0mph /  6.4km/h 8.0mph /  12.9km/h 64% 0.00in /  0mm
22:20 64.5 °F /  18.1 °C 52.5 °F /  11.4 °C 29.76in /  1007.7hPa ENE 4.0mph /  6.4km/h 7.0mph /  11.3km/h 65% 0.00in /  0mm
22:25 64.4 °F /  18 °C 52.4 °F /  11.3 °C 29.75in /  1007.3hPa NE 4.0mph /  6.4km/h 9.0mph /  14.5km/h 65% 0.00in /  0mm
22:30 64.3 °F /  17.9 °C 52.3 °F /  11.3 °C 29.75in /  1007.3hPa East 3.0mph /  4.8km/h 9.0mph /  14.5km/h 65% 0.00in /  0mm
22:35 64.1 °F /  17.8 °C 52.1 °F /  11.2 °C 29.75in /  1007.3hPa ENE 2.0mph /  3.2km/h 7.0mph /  11.3km/h 65% 0.00in /  0mm
22:40 64.1 °F /  17.8 °C 52.1 °F /  11.2 °C 29.75in /  1007.3hPa NE 3.0mph /  4.8km/h 8.0mph /  12.9km/h 65% 0.00in /  0mm
22:45 63.9 °F /  17.7 °C 51.9 °F /  11.1 °C 29.75in /  1007.3hPa NE 2.0mph /  3.2km/h 5.0mph /  8km/h 65% 0.00in /  0mm
22:50 64.0 °F /  17.8 °C 52.0 °F /  11.1 °C 29.75in /  1007.3hPa ENE 3.0mph /  4.8km/h 7.0mph /  11.3km/h 65% 0.00in /  0mm
22:55 63.9 °F /  17.7 °C 51.9 °F /  11.1 °C 29.75in /  1007.3hPa ENE 2.0mph /  3.2km/h 8.0mph /  12.9km/h 65% 0.00in /  0mm
23:00 63.9 °F /  17.7 °C 51.5 °F /  10.8 °C 29.75in /  1007.3hPa NE 3.0mph /  4.8km/h 9.0mph /  14.5km/h 64% 0.00in /  0mm
23:05 63.7 °F /  17.6 °C 51.3 °F /  10.7 °C 29.74in /  1007hPa ENE 3.0mph /  4.8km/h 10.0mph /  16.1km/h 64% 0.00in /  0mm
23:10 63.6 °F /  17.6 °C 51.2 °F /  10.7 °C 29.74in /  1007hPa ENE 3.0mph /  4.8km/h 10.0mph /  16.1km/h 64% 0.00in /  0mm
23:15 63.5 °F /  17.5 °C 51.1 °F /  10.6 °C 29.74in /  1007hPa ENE 4.0mph /  6.4km/h 9.0mph /  14.5km/h 64% 0.00in /  0mm
23:20 63.4 °F /  17.4 °C 51.0 °F /  10.6 °C 29.74in /  1007hPa ENE 4.0mph /  6.4km/h 8.0mph /  12.9km/h 64% 0.00in /  0mm
23:25 63.3 °F /  17.4 °C 50.9 °F /  10.5 °C 29.73in /  1006.7hPa ENE 4.0mph /  6.4km/h 8.0mph /  12.9km/h 64% 0.00in /  0mm
23:30 63.1 °F /  17.3 °C 50.7 °F /  10.4 °C 29.74in /  1007hPa ENE 3.0mph /  4.8km/h 8.0mph /  12.9km/h 64% 0.00in /  0mm
23:35 63.0 °F /  17.2 °C 50.6 °F /  10.3 °C 29.73in /  1006.7hPa East 3.0mph /  4.8km/h 8.0mph /  12.9km/h 64% 0.00in /  0mm
23:40 62.9 °F /  17.2 °C 51.0 °F /  10.6 °C 29.73in /  1006.7hPa ENE 1.0mph /  1.6km/h 6.0mph /  9.7km/h 65% 0.00in /  0mm
23:45 62.7 °F /  17.1 °C 50.8 °F /  10.4 °C 29.74in /  1007hPa East 1.0mph /  1.6km/h 6.0mph /  9.7km/h 65% 0.00in /  0mm
23:50 62.7 °F /  17.1 °C 50.8 °F /  10.4 °C 29.73in /  1006.7hPa East 5.0mph /  8km/h 8.0mph /  12.9km/h 65% 0.00in /  0mm
23:55 62.5 °F /  16.9 °C 50.6 °F /  10.3 °C 29.73in /  1006.7hPa East 3.0mph /  4.8km/h 8.0mph /  12.9km/h 65% 0.00in /  0mm
Buffalo, New York, USA
Compliments of Weather Underground - 2.5 mb